Time;durP1;ratioP1;P1;durP2;ratioP2;P2;SDS_P1;SDS_P2;PMS_P1;PMS_P2;Temp;Humidity;BMP_temperature;BMP_pressure;BME280_temperature;BME280_humidity;BME280_pressure;Samples;Min_cycle;Max_cycle;Signal;HPM_P1;HPM_P2
2022/09/01 00:00:50;;;;;;;;;;;18.20;54.80;;;;;;5043884;28;19920;-80
2022/09/01 00:03:17;;;;;;;;;;;18.40;54.50;;;;;;5046204;28;20386;-80
2022/09/01 00:05:45;;;;;;;;;;;18.40;53.90;;;;;;5052735;28;20449;-80
2022/09/01 00:08:11;;;;;;;;;;;18.40;55.00;;;;;;5054803;28;19917;-80
2022/09/01 00:10:36;;;;;;;;;;;18.40;54.40;;;;;;5043532;28;19946;-79
2022/09/01 00:13:05;;;;;;;;;;;18.40;54.90;;;;;;5050580;28;19917;-79
2022/09/01 00:15:31;;;;;;;;;;;18.30;55.00;;;;;;5038896;28;19914;-79
2022/09/01 00:17:57;;;;;;;;;;;18.40;54.30;;;;;;5046262;28;19917;-80
2022/09/01 00:20:22;;;;;;;;;;;18.30;55.10;;;;;;5043175;28;19913;-80
2022/09/01 00:22:48;;;;;;;;;;;18.50;54.20;;;;;;5046380;28;19921;-79
2022/09/01 00:25:14;;;;;;;;;;;18.50;54.20;;;;;;5051851;28;19939;-79
2022/09/01 00:27:39;;;;;;;;;;;18.30;55.20;;;;;;5042063;28;19913;-80
2022/09/01 00:30:05;;;;;;;;;;;18.30;55.40;;;;;;5049488;28;20062;-79
2022/09/01 00:32:31;;;;;;;;;;;18.40;54.90;;;;;;5038036;28;19913;-79
2022/09/01 00:34:56;;;;;;;;;;;18.40;54.50;;;;;;5045953;28;19966;-80
2022/09/01 00:37:22;;;;;;;;;;;18.30;54.90;;;;;;5048101;28;19917;-80
2022/09/01 00:39:47;;;;;;;;;;;18.30;54.70;;;;;;5044782;28;20001;-80
2022/09/01 00:42:13;;;;;;;;;;;18.40;54.60;;;;;;5055059;28;19921;-80
2022/09/01 00:44:38;;;;;;;;;;;18.20;55.20;;;;;;5048850;28;20327;-79
2022/09/01 00:47:05;;;;;;;;;;;18.10;56.00;;;;;;5042211;28;19917;-80
2022/09/01 00:49:34;;;;;;;;;;;18.20;55.50;;;;;;5045869;28;19917;-80
2022/09/01 00:52:03;;;;;;;;;;;18.20;55.60;;;;;;5041002;28;19912;-80
2022/09/01 00:54:31;;;;;;;;;;;18.10;55.80;;;;;;5051941;28;19920;-80
2022/09/01 00:56:57;;;;;;;;;;;18.00;57.00;;;;;;5043634;28;20100;-80
2022/09/01 00:59:24;;;;;;;;;;;18.00;56.40;;;;;;5055742;28;19919;-80
2022/09/01 01:01:50;;;;;;;;;;;17.80;57.80;;;;;;5058984;28;19913;-80
2022/09/01 01:04:15;;;;;;;;;;;17.70;58.60;;;;;;5051363;28;19919;-80
2022/09/01 01:06:48;;;;;;;;;;;17.60;58.00;;;;;;5044803;28;19913;-80
2022/09/01 01:09:17;;;;;;;;;;;17.50;58.70;;;;;;5052314;28;19912;-80
2022/09/01 01:11:46;;;;;;;;;;;17.60;58.70;;;;;;5045258;28;20058;-81
2022/09/01 01:14:14;;;;;;;;;;;17.70;57.70;;;;;;5050716;28;20379;-81
2022/09/01 01:16:43;;;;;;;;;;;17.70;57.90;;;;;;5049400;28;20382;-81
2022/09/01 01:25:11;;;;;;;;;;;17.60;58.20;;;;;;5043070;28;19927;-80
2022/09/01 01:27:37;;;;;;;;;;;17.50;58.30;;;;;;5056613;28;19999;-80
2022/09/01 01:30:03;;;;;;;;;;;17.50;58.50;;;;;;5047641;28;19960;-80
2022/09/01 01:32:29;;;;;;;;;;;17.40;58.80;;;;;;5042821;28;19928;-80
2022/09/01 01:34:55;;;;;;;;;;;17.30;59.00;;;;;;5047647;28;19917;-81
2022/09/01 01:37:23;;;;;;;;;;;17.10;60.10;;;;;;5045687;28;19924;-80
2022/09/01 01:39:48;;;;;;;;;;;17.10;60.30;;;;;;5043437;28;19913;-80
2022/09/01 01:42:14;;;;;;;;;;;17.00;60.70;;;;;;5047180;28;19956;-80
2022/09/01 01:44:41;;;;;;;;;;;17.10;60.10;;;;;;5049429;28;19914;-80
2022/09/01 01:47:11;;;;;;;;;;;17.00;60.60;;;;;;5044008;28;19920;-80
2022/09/01 01:49:39;;;;;;;;;;;17.10;59.40;;;;;;5049204;28;19973;-80
2022/09/01 01:52:04;;;;;;;;;;;17.00;59.70;;;;;;5046836;28;20015;-80
2022/09/01 01:54:31;;;;;;;;;;;16.90;61.00;;;;;;5051741;28;20026;-80
2022/09/01 01:57:03;;;;;;;;;;;16.80;61.00;;;;;;5052850;28;19924;-80
2022/09/01 01:59:28;;;;;;;;;;;16.90;60.20;;;;;;5047391;28;20398;-80
2022/09/01 02:01:55;;;;;;;;;;;16.70;61.00;;;;;;5046420;28;19921;-80
2022/09/01 02:04:20;;;;;;;;;;;16.50;61.70;;;;;;5044604;28;19960;-80
2022/09/01 02:06:46;;;;;;;;;;;16.50;61.70;;;;;;5047933;28;19913;-80
2022/09/01 02:09:13;;;;;;;;;;;16.60;61.10;;;;;;5051368;28;19920;-80
2022/09/01 02:11:38;;;;;;;;;;;16.50;61.80;;;;;;5053114;28;19913;-80
2022/09/01 02:14:05;;;;;;;;;;;16.50;62.00;;;;;;5044624;28;20281;-80
2022/09/01 02:16:34;;;;;;;;;;;16.50;61.40;;;;;;5042647;28;19917;-80
2022/09/01 02:19:00;;;;;;;;;;;16.50;61.90;;;;;;5047262;28;19917;-80
2022/09/01 02:21:26;;;;;;;;;;;16.50;62.00;;;;;;5053552;28;19913;-80
2022/09/01 02:24:02;;;;;;;;;;;16.50;61.40;;;;;;5052298;28;19913;-80
2022/09/01 02:26:30;;;;;;;;;;;16.50;61.60;;;;;;5047714;28;20375;-80
2022/09/01 02:28:57;;;;;;;;;;;16.30;62.60;;;;;;5044247;28;20058;-80
2022/09/01 02:31:23;;;;;;;;;;;16.30;62.40;;;;;;5046193;28;19966;-80
2022/09/01 02:33:49;;;;;;;;;;;16.40;62.30;;;;;;5049004;28;20328;-80
2022/09/01 02:36:16;;;;;;;;;;;16.50;61.40;;;;;;5045592;28;19975;-80
2022/09/01 02:38:44;;;;;;;;;;;16.40;61.80;;;;;;5038703;28;20330;-81
2022/09/01 02:41:11;;;;;;;;;;;16.20;62.60;;;;;;5045410;28;20443;-80
2022/09/01 02:43:38;;;;;;;;;;;16.20;62.20;;;;;;5055247;28;19916;-79
2022/09/01 02:46:05;;;;;;;;;;;16.30;61.70;;;;;;5046788;28;19939;-77
2022/09/01 02:48:36;;;;;;;;;;;16.10;62.60;;;;;;5040720;28;20371;-79
2022/09/01 02:51:05;;;;;;;;;;;16.10;62.80;;;;;;5046568;28;20326;-79
2022/09/01 02:53:33;;;;;;;;;;;16.20;62.20;;;;;;5050113;28;19913;-78
2022/09/01 02:56:01;;;;;;;;;;;16.00;63.00;;;;;;5048458;28;20329;-79
2022/09/01 02:58:27;;;;;;;;;;;15.90;64.00;;;;;;5050458;28;20020;-79
2022/09/01 03:00:54;;;;;;;;;;;16.00;63.20;;;;;;5044754;28;19944;-79
2022/09/01 03:03:20;;;;;;;;;;;15.90;63.40;;;;;;5049869;28;20502;-79
2022/09/01 03:05:46;;;;;;;;;;;16.00;63.30;;;;;;5049051;28;19912;-79
2022/09/01 03:08:15;;;;;;;;;;;16.10;62.60;;;;;;5046310;28;19924;-79
2022/09/01 03:10:41;;;;;;;;;;;16.00;63.10;;;;;;5041078;28;19921;-79
2022/09/01 03:13:09;;;;;;;;;;;15.90;63.50;;;;;;5047701;28;19939;-78
2022/09/01 03:15:35;;;;;;;;;;;15.90;63.10;;;;;;5047029;28;19917;-78
2022/09/01 03:18:02;;;;;;;;;;;16.00;62.90;;;;;;5049908;28;20015;-77
2022/09/01 03:20:28;;;;;;;;;;;15.80;64.00;;;;;;5045578;28;19920;-78
2022/09/01 03:22:56;;;;;;;;;;;15.90;63.20;;;;;;5048163;28;19943;-78
2022/09/01 03:25:23;;;;;;;;;;;16.00;62.80;;;;;;5045496;28;19917;-79
2022/09/01 03:27:52;;;;;;;;;;;16.00;63.10;;;;;;5038906;28;19921;-79
2022/09/01 03:30:18;;;;;;;;;;;15.90;63.30;;;;;;5040315;28;19913;-78
2022/09/01 03:32:44;;;;;;;;;;;15.80;63.50;;;;;;5035163;28;19920;-79
2022/09/01 03:35:10;;;;;;;;;;;15.80;64.00;;;;;;5043540;28;20303;-78
2022/09/01 03:37:36;;;;;;;;;;;15.70;63.90;;;;;;5040558;28;19917;-78
2022/09/01 03:40:03;;;;;;;;;;;15.80;63.70;;;;;;5041580;28;20335;-79
2022/09/01 03:42:29;;;;;;;;;;;15.70;65.10;;;;;;5038349;28;19920;-78
2022/09/01 03:44:55;;;;;;;;;;;15.80;63.90;;;;;;5038353;28;19913;-78
2022/09/01 03:47:22;;;;;;;;;;;15.70;64.10;;;;;;5039034;28;19913;-79
2022/09/01 03:49:48;;;;;;;;;;;15.70;64.10;;;;;;5046018;28;20011;-80
2022/09/01 03:52:16;;;;;;;;;;;15.90;63.40;;;;;;5047469;28;19952;-79
2022/09/01 03:54:42;;;;;;;;;;;16.00;63.10;;;;;;5038039;28;19913;-79
2022/09/01 03:57:09;;;;;;;;;;;15.90;63.40;;;;;;5036291;28;20328;-79
2022/09/01 03:59:35;;;;;;;;;;;15.90;63.50;;;;;;5040050;28;19948;-79
2022/09/01 04:02:01;;;;;;;;;;;15.80;64.20;;;;;;5039037;28;19996;-78
2022/09/01 04:04:30;;;;;;;;;;;15.80;63.90;;;;;;5036405;28;20379;-80
2022/09/01 04:06:55;;;;;;;;;;;15.90;63.40;;;;;;5048334;28;19912;-80
2022/09/01 04:09:21;;;;;;;;;;;15.80;64.10;;;;;;5039446;28;19928;-80
2022/09/01 04:11:47;;;;;;;;;;;15.80;63.40;;;;;;5045820;28;20334;-78
2022/09/01 04:14:13;;;;;;;;;;;15.70;64.00;;;;;;5040861;28;19960;-79
2022/09/01 04:19:25;;;;;;;;;;;15.60;64.10;;;;;;5045887;28;19920;-79
2022/09/01 04:21:55;;;;;;;;;;;15.60;64.20;;;;;;5045644;28;20319;-80
2022/09/01 04:24:23;;;;;;;;;;;15.60;64.30;;;;;;5044488;28;19939;-79
2022/09/01 04:26:49;;;;;;;;;;;15.80;63.50;;;;;;5040946;28;20426;-80
2022/09/01 04:29:25;;;;;;;;;;;15.60;63.80;;;;;;5046037;28;19924;-79
2022/09/01 04:31:52;;;;;;;;;;;15.50;64.70;;;;;;5042671;28;19913;-79
2022/09/01 04:34:18;;;;;;;;;;;15.60;64.00;;;;;;5048797;28;19974;-80
2022/09/01 04:36:44;;;;;;;;;;;15.60;64.30;;;;;;5025814;22;20129;-81
2022/09/01 04:39:11;;;;;;;;;;;15.50;64.90;;;;;;5052427;28;19923;-81
2022/09/01 04:41:38;;;;;;;;;;;15.50;64.10;;;;;;5054575;28;19920;-81
2022/09/01 04:44:04;;;;;;;;;;;15.50;64.20;;;;;;5055912;28;19920;-81
2022/09/01 04:46:31;;;;;;;;;;;15.40;64.60;;;;;;5053425;28;20011;-81
2022/09/01 04:48:57;;;;;;;;;;;15.30;64.80;;;;;;5050293;28;19989;-81
2022/09/01 04:51:26;;;;;;;;;;;15.30;64.80;;;;;;5049000;28;20438;-81
2022/09/01 04:53:53;;;;;;;;;;;15.10;66.00;;;;;;5044135;28;19913;-81
2022/09/01 04:56:21;;;;;;;;;;;15.10;65.60;;;;;;5053077;28;19912;-81
2022/09/01 04:58:48;;;;;;;;;;;15.00;65.80;;;;;;5044488;28;19913;-81
2022/09/01 05:01:18;;;;;;;;;;;15.20;65.60;;;;;;5051574;28;19936;-80
2022/09/01 05:03:44;;;;;;;;;;;15.30;65.20;;;;;;5046143;28;19917;-81
2022/09/01 05:06:18;;;;;;;;;;;15.30;65.40;;;;;;5055681;28;19940;-82
2022/09/01 05:08:45;;;;;;;;;;;15.30;65.00;;;;;;5044432;28;19917;-83
2022/09/01 05:11:11;;;;;;;;;;;15.50;64.50;;;;;;5043280;28;19912;-82
2022/09/01 05:13:38;;;;;;;;;;;15.50;64.40;;;;;;5051410;28;19920;-83
2022/09/01 05:16:14;;;;;;;;;;;15.30;65.00;;;;;;5053974;28;19924;-80
2022/09/01 05:18:44;;;;;;;;;;;15.30;64.90;;;;;;5056395;28;19977;-81
2022/09/01 05:21:10;;;;;;;;;;;15.10;65.30;;;;;;5067955;28;19927;-81
2022/09/01 05:23:41;;;;;;;;;;;15.10;65.10;;;;;;5051706;28;19921;-81
2022/09/01 05:26:17;;;;;;;;;;;15.00;65.50;;;;;;5057480;28;19987;-81
2022/09/01 05:28:43;;;;;;;;;;;15.10;65.70;;;;;;5044389;28;19924;-80
2022/09/01 05:31:09;;;;;;;;;;;15.00;66.30;;;;;;5050273;28;20311;-81
2022/09/01 05:33:35;;;;;;;;;;;15.00;66.70;;;;;;5057103;28;19941;-84
2022/09/01 05:36:03;;;;;;;;;;;15.00;65.90;;;;;;5049392;28;20379;-83
2022/09/01 05:38:30;;;;;;;;;;;15.20;65.70;;;;;;5048203;28;19917;-84
2022/09/01 05:41:03;;;;;;;;;;;15.10;66.10;;;;;;5054405;28;20367;-85
2022/09/01 05:43:29;;;;;;;;;;;15.30;65.80;;;;;;5047107;28;19921;-81
2022/09/01 05:45:56;;;;;;;;;;;15.20;65.90;;;;;;5049448;28;20019;-81
2022/09/01 05:48:22;;;;;;;;;;;15.20;66.20;;;;;;5052169;28;20428;-81
2022/09/01 05:50:48;;;;;;;;;;;15.20;66.00;;;;;;5037012;28;19987;-81
2022/09/01 05:53:17;;;;;;;;;;;15.50;64.90;;;;;;5035568;28;20399;-81
2022/09/01 05:55:43;;;;;;;;;;;15.60;64.50;;;;;;5036125;28;20000;-80
2022/09/01 05:58:12;;;;;;;;;;;15.50;64.60;;;;;;5037583;28;19955;-81
2022/09/01 06:00:39;;;;;;;;;;;15.40;65.30;;;;;;5034731;28;20298;-81
2022/09/01 06:03:08;;;;;;;;;;;15.20;66.00;;;;;;5047836;28;20384;-81
2022/09/01 06:05:35;;;;;;;;;;;15.40;65.60;;;;;;5043014;28;19975;-81
2022/09/01 06:08:01;;;;;;;;;;;15.20;67.10;;;;;;5052122;28;19909;-81
2022/09/01 06:10:28;;;;;;;;;;;15.60;64.70;;;;;;5053942;28;20363;-81
2022/09/01 06:12:53;;;;;;;;;;;15.50;65.10;;;;;;5052214;28;19913;-81
2022/09/01 06:15:19;;;;;;;;;;;15.20;66.60;;;;;;5050888;28;20011;-81
2022/09/01 06:17:45;;;;;;;;;;;15.60;65.10;;;;;;5051905;28;19920;-83
2022/09/01 06:20:11;;;;;;;;;;;15.60;65.60;;;;;;5052212;28;19913;-81
2022/09/01 06:22:37;;;;;;;;;;;15.70;64.50;;;;;;5053795;28;20421;-83
2022/09/01 06:25:05;;;;;;;;;;;15.60;65.70;;;;;;5051472;28;19920;-81
2022/09/01 06:27:37;;;;;;;;;;;15.50;66.10;;;;;;5050913;28;19920;-81
2022/09/01 06:30:05;;;;;;;;;;;15.60;65.40;;;;;;5052771;28;19908;-81
2022/09/01 06:32:33;;;;;;;;;;;15.80;64.40;;;;;;5051624;28;19992;-81
2022/09/01 06:34:59;;;;;;;;;;;15.90;64.00;;;;;;5051715;28;19979;-81
2022/09/01 06:37:25;;;;;;;;;;;15.70;65.40;;;;;;5050916;28;19940;-81
2022/09/01 06:39:51;;;;;;;;;;;15.80;64.40;;;;;;5050426;28;19920;-81
2022/09/01 06:42:16;;;;;;;;;;;15.80;64.80;;;;;;5051526;28;20295;-81
2022/09/01 06:44:42;;;;;;;;;;;15.70;64.80;;;;;;5045284;28;20001;-81
2022/09/01 06:47:07;;;;;;;;;;;15.60;65.60;;;;;;5043728;28;19931;-81
2022/09/01 06:49:33;;;;;;;;;;;15.80;65.40;;;;;;5054224;28;19917;-83
2022/09/01 06:51:59;;;;;;;;;;;15.80;65.40;;;;;;5053474;28;20299;-81
2022/09/01 06:54:25;;;;;;;;;;;15.90;66.00;;;;;;5054706;28;19909;-81
2022/09/01 06:56:51;;;;;;;;;;;16.00;65.20;;;;;;5052937;28;19912;-81
2022/09/01 06:59:17;;;;;;;;;;;16.00;64.70;;;;;;5051086;28;19912;-80
2022/09/01 07:01:42;;;;;;;;;;;16.00;64.90;;;;;;5052658;28;19916;-81
2022/09/01 07:04:08;;;;;;;;;;;16.30;64.10;;;;;;5052610;28;19916;-80
2022/09/01 07:06:34;;;;;;;;;;;16.60;62.80;;;;;;5054343;28;19999;-81
2022/09/01 07:09:00;;;;;;;;;;;16.40;62.90;;;;;;5052576;28;20031;-81
2022/09/01 07:11:28;;;;;;;;;;;16.40;64.00;;;;;;5053747;28;19968;-80
2022/09/01 07:13:54;;;;;;;;;;;16.50;64.40;;;;;;5051289;28;19909;-81
2022/09/01 07:16:21;;;;;;;;;;;16.80;62.40;;;;;;5050595;28;19916;-81
2022/09/01 07:18:48;;;;;;;;;;;17.00;60.90;;;;;;5052088;28;20394;-81
2022/09/01 07:21:15;;;;;;;;;;;16.80;61.50;;;;;;5050034;28;21421;-80
2022/09/01 07:23:42;;;;;;;;;;;16.80;61.40;;;;;;5050323;28;20410;-81
2022/09/01 07:26:08;;;;;;;;;;;16.70;61.10;;;;;;5051103;28;19909;-80
2022/09/01 07:28:34;;;;;;;;;;;16.60;62.40;;;;;;5051727;28;19935;-81
2022/09/01 07:31:00;;;;;;;;;;;16.80;62.00;;;;;;5050526;28;20291;-80
2022/09/01 07:33:26;;;;;;;;;;;17.00;61.00;;;;;;5051202;28;20011;-81
2022/09/01 07:35:54;;;;;;;;;;;17.10;61.40;;;;;;5053168;28;19916;-80
2022/09/01 07:38:20;;;;;;;;;;;17.00;61.30;;;;;;5050142;28;19999;-81
2022/09/01 07:40:45;;;;;;;;;;;17.10;61.10;;;;;;5050952;28;19924;-82
2022/09/01 07:43:23;;;;;;;;;;;17.10;61.70;;;;;;5051462;28;19913;-83
2022/09/01 07:45:54;;;;;;;;;;;17.10;60.80;;;;;;5036102;28;19913;-82
2022/09/01 07:48:21;;;;;;;;;;;17.10;61.30;;;;;;5031103;28;19909;-82
2022/09/01 07:50:48;;;;;;;;;;;17.30;60.10;;;;;;5050048;28;19912;-85
2022/09/01 07:53:17;;;;;;;;;;;17.30;59.60;;;;;;5052122;28;19909;-84
2022/09/01 07:55:45;;;;;;;;;;;17.40;60.30;;;;;;5051735;28;20263;-83
2022/09/01 07:58:12;;;;;;;;;;;17.50;59.80;;;;;;5050033;28;19963;-86
2022/09/01 08:00:38;;;;;;;;;;;17.60;59.60;;;;;;5050292;28;20005;-84
2022/09/01 08:03:04;;;;;;;;;;;17.80;58.90;;;;;;5053862;28;19920;-84
2022/09/01 08:05:30;;;;;;;;;;;17.80;59.60;;;;;;5053953;28;20288;-84
2022/09/01 08:07:55;;;;;;;;;;;17.80;59.10;;;;;;5053662;28;19913;-83
2022/09/01 08:10:21;;;;;;;;;;;17.90;58.40;;;;;;5054219;28;19913;-86
2022/09/01 08:12:47;;;;;;;;;;;18.00;58.20;;;;;;5054653;28;19924;-85
2022/09/01 08:15:12;;;;;;;;;;;18.00;58.00;;;;;;5053838;28;19954;-85
2022/09/01 08:17:39;;;;;;;;;;;18.10;58.00;;;;;;5056463;28;20383;-86
2022/09/01 08:20:08;;;;;;;;;;;18.20;57.60;;;;;;5055709;28;20015;-85
2022/09/01 08:22:34;;;;;;;;;;;18.30;56.80;;;;;;5053656;28;20306;-85
2022/09/01 08:24:59;;;;;;;;;;;18.30;57.20;;;;;;5053811;28;19909;-85
2022/09/01 08:27:25;;;;;;;;;;;18.50;56.10;;;;;;5053744;28;19982;-86
2022/09/01 08:29:50;;;;;;;;;;;18.50;56.80;;;;;;5054920;28;19913;-86
2022/09/01 08:32:15;;;;;;;;;;;18.60;56.20;;;;;;5055624;28;19952;-85
2022/09/01 08:34:42;;;;;;;;;;;18.70;56.20;;;;;;5055138;28;19913;-83
2022/09/01 08:37:08;;;;;;;;;;;18.90;56.90;;;;;;5055271;28;20318;-85
2022/09/01 08:39:33;;;;;;;;;;;19.00;54.90;;;;;;5054958;28;20027;-85
2022/09/01 08:42:25;;;;;;;;;;;19.30;53.40;;;;;;5056278;28;20510;-85
2022/09/01 08:45:01;;;;;;;;;;;19.20;53.30;;;;;;5017087;28;19919;-84
2022/09/01 08:47:27;;;;;;;;;;;19.20;53.70;;;;;;5056187;28;19909;-85
2022/09/01 08:49:54;;;;;;;;;;;19.20;54.80;;;;;;5053679;28;19916;-86
2022/09/01 08:52:40;;;;;;;;;;;19.20;54.40;;;;;;5054651;28;20006;-82
2022/09/01 08:55:09;;;;;;;;;;;19.50;53.50;;;;;;5052636;28;19912;-82
2022/09/01 08:57:39;;;;;;;;;;;19.80;52.40;;;;;;5054177;28;20379;-83
2022/09/01 09:00:08;;;;;;;;;;;19.80;52.30;;;;;;5054136;28;19924;-83
2022/09/01 09:02:38;;;;;;;;;;;19.60;52.10;;;;;;5056670;28;19913;-83
2022/09/01 09:05:06;;;;;;;;;;;19.60;52.10;;;;;;5055072;28;19913;-84
2022/09/01 09:07:47;;;;;;;;;;;19.60;52.20;;;;;;5053025;28;19913;-84
2022/09/01 09:10:18;;;;;;;;;;;19.60;52.80;;;;;;5042847;28;19919;-85
2022/09/01 09:13:02;;;;;;;;;;;19.80;52.10;;;;;;5045024;28;20027;-85
2022/09/01 09:15:41;;;;;;;;;;;19.90;51.60;;;;;;5052451;28;20399;-85
2022/09/01 09:18:24;;;;;;;;;;;20.00;50.20;;;;;;5053807;28;20505;-84
2022/09/01 09:20:50;;;;;;;;;;;20.10;51.00;;;;;;5054437;28;19929;-84
2022/09/01 09:23:27;;;;;;;;;;;20.10;51.80;;;;;;5054411;28;19913;-84
2022/09/01 09:25:53;;;;;;;;;;;20.10;50.60;;;;;;5050710;28;19916;-85
2022/09/01 09:28:19;;;;;;;;;;;20.20;50.50;;;;;;5051461;28;20337;-84
2022/09/01 09:30:44;;;;;;;;;;;20.30;49.40;;;;;;5052021;28;19936;-84
2022/09/01 09:33:30;;;;;;;;;;;20.30;50.20;;;;;;5051433;28;19927;-84
2022/09/01 09:36:13;;;;;;;;;;;20.50;49.70;;;;;;5052245;28;19916;-85
2022/09/01 09:38:40;;;;;;;;;;;20.60;50.80;;;;;;5050832;28;19924;-85
2022/09/01 09:41:07;;;;;;;;;;;20.50;50.70;;;;;;5053723;28;20309;-86
2022/09/01 09:43:35;;;;;;;;;;;20.60;51.20;;;;;;5058561;28;19913;-84
2022/09/01 09:46:19;;;;;;;;;;;21.00;48.80;;;;;;5052033;28;20337;-83
2022/09/01 09:48:44;;;;;;;;;;;20.90;50.60;;;;;;5052755;28;19956;-84
2022/09/01 09:51:20;;;;;;;;;;;20.80;51.40;;;;;;5053087;28;20372;-83
2022/09/01 09:53:45;;;;;;;;;;;20.90;50.30;;;;;;5053298;28;19913;-85
2022/09/01 09:56:14;;;;;;;;;;;20.90;50.00;;;;;;5053145;28;20395;-83
2022/09/01 09:58:41;;;;;;;;;;;21.00;50.00;;;;;;5052340;28;19917;-84
2022/09/01 10:01:14;;;;;;;;;;;21.00;50.50;;;;;;5050674;28;20055;-84
2022/09/01 10:03:44;;;;;;;;;;;21.00;51.50;;;;;;5046373;28;20429;-84
2022/09/01 10:06:11;;;;;;;;;;;21.10;49.80;;;;;;5052918;28;19913;-83
2022/09/01 10:08:38;;;;;;;;;;;21.10;50.20;;;;;;5051538;28;19909;-85
2022/09/01 10:11:04;;;;;;;;;;;21.10;50.70;;;;;;5052955;28;19909;-84
2022/09/01 10:13:31;;;;;;;;;;;21.20;49.90;;;;;;5053628;28;19912;-84
2022/09/01 10:15:58;;;;;;;;;;;21.20;49.70;;;;;;5050980;28;19913;-84
2022/09/01 10:18:33;;;;;;;;;;;21.20;49.80;;;;;;5054563;28;19913;-83
2022/09/01 10:21:07;;;;;;;;;;;21.20;50.40;;;;;;5052791;28;19944;-83
2022/09/01 10:23:33;;;;;;;;;;;21.50;48.40;;;;;;5052293;28;19919;-84
2022/09/01 10:26:12;;;;;;;;;;;21.50;49.10;;;;;;5052504;28;19919;-83
2022/09/01 10:28:42;;;;;;;;;;;21.50;48.40;;;;;;5053539;28;19990;-85
2022/09/01 10:31:08;;;;;;;;;;;21.80;47.60;;;;;;5046039;28;19917;-83
2022/09/01 10:33:34;;;;;;;;;;;21.70;48.00;;;;;;5050524;28;19974;-83
2022/09/01 10:36:00;;;;;;;;;;;21.80;47.80;;;;;;5055400;28;19916;-85
2022/09/01 10:38:28;;;;;;;;;;;21.70;48.40;;;;;;5053687;28;20003;-81
2022/09/01 10:41:07;;;;;;;;;;;21.60;49.00;;;;;;5052109;28;19916;-81
2022/09/01 10:43:33;;;;;;;;;;;21.60;49.30;;;;;;5053507;28;19920;-82
2022/09/01 10:45:59;;;;;;;;;;;21.70;49.00;;;;;;5052006;28;19908;-81
2022/09/01 10:48:26;;;;;;;;;;;21.60;48.70;;;;;;5051625;28;20323;-81
2022/09/01 10:50:53;;;;;;;;;;;21.40;49.20;;;;;;5052195;28;19909;-82
2022/09/01 10:53:34;;;;;;;;;;;21.60;50.00;;;;;;5053636;28;19909;-83
2022/09/01 10:55:59;;;;;;;;;;;21.70;49.00;;;;;;5053535;28;19908;-82
2022/09/01 10:58:34;;;;;;;;;;;21.80;48.90;;;;;;5051881;28;19962;-81
2022/09/01 11:01:00;;;;;;;;;;;22.10;49.70;;;;;;5052964;28;20888;-81
2022/09/01 11:03:36;;;;;;;;;;;22.40;46.70;;;;;;5052128;28;20032;-81
2022/09/01 11:06:02;;;;;;;;;;;22.30;46.70;;;;;;5053740;28;19920;-82
2022/09/01 11:08:28;;;;;;;;;;;22.20;47.40;;;;;;5052799;28;20004;-82
2022/09/01 11:10:56;;;;;;;;;;;22.20;48.20;;;;;;5052391;28;19956;-82
2022/09/01 11:13:42;;;;;;;;;;;22.30;47.80;;;;;;5053311;28;19984;-83
2022/09/01 11:16:27;;;;;;;;;;;22.50;47.60;;;;;;5052363;28;20372;-82
2022/09/01 11:18:53;;;;;;;;;;;22.50;47.50;;;;;;5043418;28;19923;-80
2022/09/01 11:21:24;;;;;;;;;;;22.30;47.00;;;;;;5047502;28;19951;-80
2022/09/01 11:23:49;;;;;;;;;;;22.40;46.70;;;;;;5043272;28;19917;-80
2022/09/01 11:26:31;;;;;;;;;;;22.20;46.70;;;;;;5043681;28;21702;-80
2022/09/01 11:28:56;;;;;;;;;;;22.10;47.10;;;;;;5047262;28;19913;-81
2022/09/01 11:31:38;;;;;;;;;;;22.10;48.60;;;;;;5041937;28;19920;-81
2022/09/01 11:34:14;;;;;;;;;;;22.10;48.10;;;;;;5051567;28;20008;-80
2022/09/01 11:36:39;;;;;;;;;;;22.50;46.60;;;;;;5051986;28;19966;-81
2022/09/01 11:39:28;;;;;;;;;;;22.30;47.30;;;;;;5052529;28;19921;-81
2022/09/01 11:41:57;;;;;;;;;;;22.40;46.90;;;;;;5053277;28;19913;-80
2022/09/01 11:44:41;;;;;;;;;;;22.40;46.80;;;;;;5052652;28;20019;-81
2022/09/01 11:47:09;;;;;;;;;;;22.50;47.20;;;;;;5046627;28;19984;-80
2022/09/01 11:49:36;;;;;;;;;;;22.60;45.60;;;;;;5043696;28;20436;-83
2022/09/01 11:52:03;;;;;;;;;;;22.50;45.80;;;;;;5040403;28;20007;-82
2022/09/01 11:54:36;;;;;;;;;;;22.50;46.70;;;;;;5046959;28;19917;-82
2022/09/01 11:57:15;;;;;;;;;;;22.60;46.80;;;;;;5049265;28;19921;-83
2022/09/01 11:59:41;;;;;;;;;;;22.70;45.40;;;;;;5043290;28;19913;-84
2022/09/01 12:02:07;;;;;;;;;;;22.80;45.40;;;;;;5046135;28;20372;-85
2022/09/01 12:04:35;;;;;;;;;;;22.80;45.80;;;;;;5041522;28;19921;-83
2022/09/01 12:07:03;;;;;;;;;;;22.80;45.10;;;;;;5043180;28;20404;-84
2022/09/01 12:09:32;;;;;;;;;;;22.90;45.20;;;;;;5033712;28;19921;-83
2022/09/01 12:11:58;;;;;;;;;;;22.90;44.70;;;;;;5051839;28;19966;-83
2022/09/01 12:14:24;;;;;;;;;;;22.90;44.30;;;;;;5046978;28;19977;-84
2022/09/01 12:16:55;;;;;;;;;;;22.70;44.80;;;;;;5047469;28;20412;-83
2022/09/01 12:19:32;;;;;;;;;;;22.80;45.70;;;;;;5035082;28;20005;-82
2022/09/01 12:22:02;;;;;;;;;;;22.90;44.70;;;;;;5046230;28;19944;-79
2022/09/01 12:24:30;;;;;;;;;;;22.80;45.30;;;;;;5045635;28;19935;-82
2022/09/01 12:27:00;;;;;;;;;;;23.00;43.70;;;;;;5044235;28;19931;-82
2022/09/01 12:29:25;;;;;;;;;;;23.00;44.20;;;;;;5051424;28;19960;-83
2022/09/01 12:31:51;;;;;;;;;;;23.00;44.10;;;;;;5046403;28;19912;-83
2022/09/01 12:34:26;;;;;;;;;;;23.00;44.30;;;;;;5043491;28;20027;-82
2022/09/01 12:37:03;;;;;;;;;;;23.00;44.30;;;;;;5047678;28;20074;-80
2022/09/01 12:39:36;;;;;;;;;;;23.00;43.80;;;;;;5051755;28;19917;-82
2022/09/01 12:42:11;;;;;;;;;;;23.10;43.20;;;;;;5050977;28;21270;-81
2022/09/01 12:44:36;;;;;;;;;;;23.10;43.80;;;;;;5040867;28;19914;-82
2022/09/01 12:47:06;;;;;;;;;;;23.20;42.80;;;;;;5045550;28;19927;-82
2022/09/01 12:49:37;;;;;;;;;;;23.20;42.10;;;;;;5048517;28;20002;-81
2022/09/01 12:52:35;;;;;;;;;;;23.20;42.40;;;;;;5043800;28;20280;-79
2022/09/01 12:55:01;;;;;;;;;;;23.20;42.40;;;;;;5043291;28;20004;-82
2022/09/01 12:57:35;;;;;;;;;;;23.30;42.10;;;;;;5045417;28;19955;-85
2022/09/01 13:00:08;;;;;;;;;;;23.40;42.70;;;;;;5050534;28;19921;-80
2022/09/01 13:02:35;;;;;;;;;;;23.50;40.40;;;;;;5046311;28;19932;-82
2022/09/01 13:05:19;;;;;;;;;;;23.40;40.50;;;;;;5051351;28;19957;-81
2022/09/01 13:07:45;;;;;;;;;;;23.50;41.30;;;;;;5040617;28;19920;-81
2022/09/01 13:10:10;;;;;;;;;;;23.50;40.80;;;;;;5052564;28;19958;-82
2022/09/01 13:12:42;;;;;;;;;;;23.60;40.40;;;;;;5054100;28;19920;-82
2022/09/01 13:15:08;;;;;;;;;;;23.50;40.70;;;;;;5047043;28;19916;-82
2022/09/01 13:17:37;;;;;;;;;;;23.40;39.90;;;;;;5049001;28;19925;-82
2022/09/01 13:20:06;;;;;;;;;;;23.40;41.20;;;;;;5048240;28;20066;-81
2022/09/01 13:22:32;;;;;;;;;;;23.50;40.60;;;;;;5039145;28;19924;-82
2022/09/01 13:24:57;;;;;;;;;;;23.60;39.70;;;;;;5053335;28;19909;-83
2022/09/01 13:27:23;;;;;;;;;;;23.70;40.10;;;;;;5051467;28;19916;-85
2022/09/01 13:29:49;;;;;;;;;;;23.60;39.80;;;;;;5038281;28;19916;-85
2022/09/01 13:32:15;;;;;;;;;;;23.40;40.30;;;;;;5045387;28;19917;-83
2022/09/01 13:34:41;;;;;;;;;;;23.50;40.20;;;;;;5048640;28;19909;-84
2022/09/01 13:37:07;;;;;;;;;;;23.60;40.70;;;;;;5044518;28;20407;-83
2022/09/01 13:39:32;;;;;;;;;;;23.60;39.20;;;;;;5047289;28;19932;-83
2022/09/01 13:41:58;;;;;;;;;;;23.60;39.00;;;;;;5054212;28;19912;-83
2022/09/01 13:44:23;;;;;;;;;;;23.50;39.20;;;;;;5042326;28;19940;-83
2022/09/01 13:46:49;;;;;;;;;;;23.50;39.70;;;;;;5058053;28;19919;-83
2022/09/01 13:49:14;;;;;;;;;;;23.60;39.30;;;;;;5047931;28;19927;-83
2022/09/01 13:51:40;;;;;;;;;;;23.60;39.40;;;;;;5055156;28;19966;-83
2022/09/01 13:54:05;;;;;;;;;;;23.60;39.90;;;;;;5045711;28;19909;-84
2022/09/01 13:56:31;;;;;;;;;;;23.60;40.00;;;;;;5049698;28;19912;-83
2022/09/01 13:58:56;;;;;;;;;;;23.60;40.00;;;;;;5049546;28;19916;-83
2022/09/01 14:01:21;;;;;;;;;;;23.60;39.60;;;;;;5054453;28;19997;-84
2022/09/01 14:03:47;;;;;;;;;;;23.60;40.90;;;;;;5049544;28;19952;-84
2022/09/01 14:06:13;;;;;;;;;;;23.70;40.90;;;;;;5053129;28;19958;-83
2022/09/01 14:08:39;;;;;;;;;;;23.80;39.40;;;;;;5052767;28;19912;-83
2022/09/01 14:11:04;;;;;;;;;;;23.70;39.00;;;;;;5060871;28;19924;-83
2022/09/01 14:13:31;;;;;;;;;;;23.60;40.00;;;;;;5056136;28;19909;-83
2022/09/01 14:15:57;;;;;;;;;;;23.70;39.00;;;;;;5047888;28;19912;-84
2022/09/01 14:18:23;;;;;;;;;;;23.60;39.60;;;;;;5050664;28;19935;-85
2022/09/01 14:20:50;;;;;;;;;;;23.90;39.00;;;;;;5051023;28;19913;-82
2022/09/01 14:23:16;;;;;;;;;;;23.70;38.40;;;;;;5047742;28;19913;-82
2022/09/01 14:25:43;;;;;;;;;;;23.60;38.80;;;;;;5043725;28;19913;-81
2022/09/01 14:28:08;;;;;;;;;;;23.70;39.50;;;;;;5040978;28;19921;-81
2022/09/01 14:30:34;;;;;;;;;;;23.70;38.50;;;;;;5042071;28;19921;-80